Time;durP1;ratioP1;P1;durP2;ratioP2;P2;SDS_P1;SDS_P2;PMS_P1;PMS_P2;Temp;Humidity;BMP_temperature;BMP_pressure;BME280_temperature;BME280_humidity;BME280_pressure;Samples;Min_cycle;Max_cycle;Signal;HPM_P1;HPM_P2
2023/09/24 04:01:39;;;;;;;1.87;1.77;;;11.00;97.30;;;;;;5542324;23;20495;-89
2023/09/24 04:04:05;;;;;;;4.43;1.50;;;11.00;97.30;;;;;;5031478;28;20759;-89
2023/09/24 04:06:31;;;;;;;1.83;1.70;;;11.00;97.30;;;;;;5030824;28;20427;-89
2023/09/24 04:08:57;;;;;;;2.50;2.30;;;11.10;97.30;;;;;;5024652;28;20449;-89
2023/09/24 04:11:23;;;;;;;2.40;2.13;;;11.10;97.30;;;;;;5029293;28;20533;-89
2023/09/24 04:13:48;;;;;;;1.53;1.47;;;11.10;97.30;;;;;;5013074;28;20190;-89
2023/09/24 04:16:14;;;;;;;3.30;3.10;;;11.10;97.30;;;;;;5021673;28;20168;-90
2023/09/24 04:18:44;;;;;;;2.03;1.43;;;11.20;97.30;;;;;;5026591;28;20205;-89
2023/09/24 04:21:17;;;;;;;11.60;3.17;;;11.20;97.30;;;;;;5022755;28;20196;-89
2023/09/24 04:23:42;;;;;;;2.40;2.20;;;11.20;97.30;;;;;;5019343;28;20423;-89
2023/09/24 04:26:19;;;;;;;2.30;1.63;;;11.20;97.30;;;;;;5020083;28;20927;-88
2023/09/24 04:28:45;;;;;;;1.37;1.37;;;11.20;97.30;;;;;;5027545;28;20192;-89
2023/09/24 04:31:11;;;;;;;1.43;1.33;;;11.20;97.30;;;;;;5029364;28;20438;-88
2023/09/24 04:33:37;;;;;;;2.90;2.70;;;11.20;97.30;;;;;;5025802;28;20235;-89
2023/09/24 04:36:05;;;;;;;1.43;1.33;;;11.30;97.30;;;;;;5025473;28;20427;-89
2023/09/24 04:38:30;;;;;;;2.50;1.87;;;11.30;97.30;;;;;;5020759;28;20454;-89
2023/09/24 04:40:57;;;;;;;1.67;1.57;;;11.30;97.30;;;;;;5022417;28;20501;-89
2023/09/24 04:43:22;;;;;;;3.47;2.87;;;11.40;97.30;;;;;;5028005;28;20192;-89
2023/09/24 04:45:49;;;;;;;2.23;2.03;;;11.40;97.30;;;;;;5020956;28;20440;-89
2023/09/24 04:48:14;;;;;;;2.80;2.60;;;11.40;97.30;;;;;;5027069;28;20177;-89
2023/09/24 04:50:40;;;;;;;1.83;1.73;;;11.40;97.30;;;;;;5034334;28;20797;-90
2023/09/24 04:53:06;;;;;;;1.53;1.47;;;11.40;97.30;;;;;;5025640;28;20561;-90
2023/09/24 04:55:32;;;;;;;3.27;3.07;;;11.40;97.30;;;;;;5028461;28;20181;-87
2023/09/24 04:57:58;;;;;;;1.60;1.50;;;11.50;97.30;;;;;;5030668;28;20461;-89
2023/09/24 05:00:24;;;;;;;1.63;1.43;;;11.50;97.30;;;;;;5037123;28;20416;-88
2023/09/24 05:02:49;;;;;;;1.80;1.70;;;11.50;97.30;;;;;;5031067;28;20259;-89
2023/09/24 05:05:15;;;;;;;3.40;2.90;;;11.50;97.30;;;;;;5031967;28;20180;-89
2023/09/24 05:07:41;;;;;;;2.00;1.90;;;11.50;97.30;;;;;;5045330;28;20197;-91
2023/09/24 05:10:08;;;;;;;2.60;2.37;;;11.50;97.30;;;;;;5044609;28;20424;-90
2023/09/24 05:12:33;;;;;;;1.43;1.20;;;11.50;97.30;;;;;;5047392;28;20263;-87
2023/09/24 05:14:59;;;;;;;2.70;2.53;;;11.50;97.30;;;;;;5027721;28;20511;-88
2023/09/24 05:17:25;;;;;;;1.80;1.70;;;11.60;97.30;;;;;;5021218;28;20659;-89
2023/09/24 05:19:50;;;;;;;3.70;2.20;;;11.60;97.30;;;;;;5030170;28;20705;-88
2023/09/24 05:22:16;;;;;;;4.40;1.63;;;11.60;97.30;;;;;;5030469;28;20246;-89
2023/09/24 05:24:42;;;;;;;2.53;2.10;;;11.60;97.30;;;;;;5026689;28;20177;-89
2023/09/24 05:27:07;;;;;;;1.83;1.73;;;11.60;97.30;;;;;;5034559;28;20530;-88
2023/09/24 05:29:35;;;;;;;3.27;2.30;;;11.70;97.30;;;;;;5027728;28;20205;-88
2023/09/24 05:32:02;;;;;;;2.00;1.53;;;11.70;97.30;;;;;;5025648;28;20213;-88
2023/09/24 05:34:27;;;;;;;1.80;1.70;;;11.70;97.30;;;;;;5033423;28;20462;-89
2023/09/24 05:36:53;;;;;;;1.80;1.77;;;11.70;97.30;;;;;;5033939;28;20486;-89
2023/09/24 05:39:18;;;;;;;1.23;1.20;;;11.70;97.30;;;;;;5034262;28;20180;-89
2023/09/24 05:41:44;;;;;;;1.77;1.70;;;11.80;97.30;;;;;;5033930;28;20724;-89
2023/09/24 05:44:10;;;;;;;1.30;1.20;;;11.80;97.30;;;;;;5030380;28;20185;-88
2023/09/24 05:46:38;;;;;;;2.60;2.23;;;11.80;97.30;;;;;;5031050;28;20180;-89
2023/09/24 05:49:05;;;;;;;5.70;1.83;;;11.80;97.30;;;;;;5023820;28;20555;-89
2023/09/24 05:51:34;;;;;;;1.70;1.60;;;11.80;97.30;;;;;;5031673;28;20964;-89
2023/09/24 05:54:02;;;;;;;5.93;3.30;;;11.80;97.30;;;;;;5031624;28;20908;-89
2023/09/24 05:59:14;;;;;;;1.63;1.53;;;11.90;97.30;;;;;;5010271;28;20486;-89
2023/09/24 06:01:43;;;;;;;2.87;1.87;;;11.90;97.30;;;;;;5030122;28;20525;-87
2023/09/24 06:04:10;;;;;;;2.30;2.10;;;11.90;97.30;;;;;;5026566;28;20638;-86
2023/09/24 06:06:37;;;;;;;1.40;1.30;;;11.90;97.30;;;;;;5028333;28;20475;-86
2023/09/24 06:09:09;;;;;;;4.00;2.67;;;11.90;97.30;;;;;;5018305;28;20414;-89
2023/09/24 06:11:40;;;;;;;5.33;2.43;;;12.00;97.30;;;;;;5020448;28;20431;-88
2023/09/24 06:14:08;;;;;;;9.73;2.00;;;12.00;97.30;;;;;;5021779;28;20407;-87
2023/09/24 06:16:40;;;;;;;2.47;2.27;;;12.00;97.30;;;;;;5028031;28;20419;-85
2023/09/24 06:19:06;;;;;;;2.30;1.70;;;12.00;97.30;;;;;;5022724;28;20444;-88
2023/09/24 06:21:32;;;;;;;1.70;1.60;;;12.10;97.30;;;;;;5020828;28;20468;-89
2023/09/24 06:23:57;;;;;;;3.97;2.57;;;12.20;97.30;;;;;;5021826;28;20926;-88
2023/09/24 06:26:24;;;;;;;1.50;1.40;;;12.20;97.30;;;;;;5023349;28;20654;-88
2023/09/24 06:28:50;;;;;;;1.73;1.63;;;12.30;97.30;;;;;;5026897;28;20196;-88
2023/09/24 06:31:15;;;;;;;2.70;2.10;;;12.30;97.30;;;;;;5032197;28;20449;-89
2023/09/24 06:33:41;;;;;;;1.50;1.40;;;12.40;97.30;;;;;;5031787;28;20446;-91
2023/09/24 06:36:09;;;;;;;1.50;1.40;;;12.40;97.30;;;;;;5027934;28;20192;-89
2023/09/24 06:38:35;;;;;;;1.33;1.27;;;12.50;97.30;;;;;;5032506;28;20208;-88
2023/09/24 06:41:02;;;;;;;5.20;2.33;;;12.50;97.30;;;;;;5029795;28;20887;-89
2023/09/24 06:43:29;;;;;;;2.00;1.90;;;12.60;97.30;;;;;;5018468;28;20275;-90
2023/09/24 06:45:55;;;;;;;1.50;1.40;;;12.60;97.30;;;;;;5023630;28;20470;-89
2023/09/24 06:48:24;;;;;;;1.80;1.70;;;12.70;97.30;;;;;;5035910;28;20411;-90
2023/09/24 06:50:51;;;;;;;2.27;1.80;;;12.70;97.30;;;;;;5023223;28;20515;-90
2023/09/24 06:53:18;;;;;;;3.70;2.40;;;12.80;97.30;;;;;;5018911;28;20804;-90
2023/09/24 06:55:43;;;;;;;5.03;2.30;;;12.80;97.30;;;;;;5022090;28;20423;-89
2023/09/24 06:58:09;;;;;;;1.10;1.00;;;12.90;97.30;;;;;;5020279;28;20454;-87
2023/09/24 07:00:34;;;;;;;4.67;1.70;;;12.90;97.30;;;;;;5028275;28;20181;-90
2023/09/24 07:03:00;;;;;;;2.90;2.13;;;13.00;97.30;;;;;;5019502;28;20665;-89
2023/09/24 07:05:26;;;;;;;1.77;1.53;;;13.00;97.30;;;;;;5015182;28;20177;-89
2023/09/24 07:07:52;;;;;;;1.03;1.00;;;13.10;97.30;;;;;;5022793;28;20207;-89
2023/09/24 07:10:18;;;;;;;1.40;1.30;;;13.10;97.30;;;;;;5021859;28;20451;-90
2023/09/24 07:12:44;;;;;;;3.10;2.90;;;13.20;97.30;;;;;;5021333;28;20201;-89
2023/09/24 07:15:11;;;;;;;1.23;1.13;;;13.20;97.30;;;;;;5017656;28;20427;-89
2023/09/24 07:17:37;;;;;;;2.97;2.60;;;13.30;97.30;;;;;;5017541;28;20872;-87
2023/09/24 07:20:04;;;;;;;1.20;1.10;;;13.30;97.30;;;;;;5016186;28;20968;-88
2023/09/24 07:22:30;;;;;;;2.30;1.57;;;13.40;97.30;;;;;;5016284;28;20448;-88
2023/09/24 07:24:56;;;;;;;1.67;1.57;;;13.40;97.30;;;;;;5023906;28;20502;-85
2023/09/24 07:27:22;;;;;;;9.37;1.93;;;13.40;97.30;;;;;;5029364;28;20183;-83
2023/09/24 07:29:48;;;;;;;5.47;3.53;;;13.50;97.30;;;;;;5022113;28;20180;-86
2023/09/24 07:32:14;;;;;;;2.40;1.77;;;13.50;97.30;;;;;;5022136;28;20637;-86
2023/09/24 07:34:40;;;;;;;1.20;1.10;;;13.60;97.30;;;;;;5023923;28;20173;-89
2023/09/24 07:37:08;;;;;;;1.30;1.20;;;13.60;97.30;;;;;;5017515;28;20459;-88
2023/09/24 07:39:36;;;;;;;3.40;2.00;;;13.60;97.30;;;;;;5018863;28;20499;-88
2023/09/24 07:42:02;;;;;;;22.13;2.60;;;13.70;97.30;;;;;;5028990;28;20461;-89
2023/09/24 07:44:27;;;;;;;1.47;1.37;;;13.70;97.30;;;;;;5025734;28;20411;-87
2023/09/24 07:46:54;;;;;;;3.53;2.87;;;13.70;97.30;;;;;;5018989;28;20671;-88
2023/09/24 07:49:22;;;;;;;1.10;1.10;;;13.80;97.30;;;;;;5018081;28;20177;-88
2023/09/24 07:51:50;;;;;;;1.07;0.97;;;13.80;97.30;;;;;;5027771;28;20542;-87
2023/09/24 07:54:24;;;;;;;3.10;1.70;;;13.90;97.30;;;;;;5017558;28;20953;-87
2023/09/24 07:56:52;;;;;;;2.80;1.50;;;13.90;97.30;;;;;;5021381;28;20443;-88
2023/09/24 07:59:25;;;;;;;2.90;2.30;;;14.00;97.30;;;;;;5019433;28;20423;-86
2023/09/24 08:01:53;;;;;;;1.77;1.63;;;14.10;97.30;;;;;;5019708;28;20466;-88
2023/09/24 08:04:21;;;;;;;1.47;1.40;;;14.10;97.30;;;;;;5022782;28;20427;-88
2023/09/24 08:09:36;;;;;;;1.73;1.63;;;14.20;97.30;;;;;;5015445;28;20877;-87
2023/09/24 08:12:02;;;;;;;1.83;1.73;;;14.30;97.30;;;;;;5023090;28;20494;-86
2023/09/24 08:14:35;;;;;;;1.77;1.67;;;14.30;97.30;;;;;;5025981;28;20454;-85
2023/09/24 08:17:03;;;;;;;2.60;1.83;;;14.40;97.30;;;;;;5026959;28;20463;-87
2023/09/24 08:19:31;;;;;;;1.67;1.57;;;14.40;97.30;;;;;;5025377;28;20454;-88
2023/09/24 08:21:57;;;;;;;2.03;1.57;;;14.50;97.30;;;;;;5013495;28;20440;-87
2023/09/24 08:24:23;;;;;;;1.83;1.73;;;14.50;97.30;;;;;;5029797;28;20415;-88
2023/09/24 08:26:48;;;;;;;1.70;1.63;;;14.60;97.30;;;;;;5020710;28;20515;-87
2023/09/24 08:29:14;;;;;;;1.90;1.70;;;14.60;97.30;;;;;;5019381;28;20223;-88
2023/09/24 08:31:40;;;;;;;1.90;1.83;;;14.70;97.30;;;;;;5020498;28;20204;-88
2023/09/24 08:34:06;;;;;;;1.27;1.20;;;14.80;97.30;;;;;;5027370;28;20190;-86
2023/09/24 08:36:32;;;;;;;1.60;1.50;;;14.80;97.30;;;;;;5021592;28;20651;-87
2023/09/24 08:38:58;;;;;;;1.40;1.30;;;14.90;97.30;;;;;;5017536;28;20228;-88
2023/09/24 08:41:24;;;;;;;4.63;2.13;;;15.00;97.30;;;;;;5023603;28;20538;-88
2023/09/24 08:43:55;;;;;;;2.33;1.60;;;15.10;97.30;;;;;;5026710;28;20796;-87
2023/09/24 08:46:22;;;;;;;1.80;1.80;;;15.20;97.30;;;;;;5023052;28;20419;-87
2023/09/24 08:48:48;;;;;;;1.10;1.00;;;15.30;97.30;;;;;;5027342;28;20473;-88
2023/09/24 08:51:15;;;;;;;2.80;2.60;;;15.30;97.30;;;;;;5029620;28;21118;-88
2023/09/24 08:53:40;;;;;;;4.03;1.90;;;15.40;97.30;;;;;;5025524;28;20489;-88
2023/09/24 08:56:07;;;;;;;1.93;1.33;;;15.40;97.30;;;;;;5026748;28;20454;-86
2023/09/24 08:58:32;;;;;;;2.40;2.10;;;15.50;97.30;;;;;;5020937;28;20575;-88
2023/09/24 09:01:00;;;;;;;1.10;0.90;;;15.50;97.30;;;;;;5029740;28;20470;-87
2023/09/24 09:03:27;;;;;;;1.40;1.30;;;15.60;97.30;;;;;;5019375;28;20181;-88
2023/09/24 09:05:53;;;;;;;1.53;1.43;;;15.70;97.30;;;;;;5028575;28;20998;-88
2023/09/24 09:08:19;;;;;;;1.20;1.10;;;15.80;97.30;;;;;;5026462;28;20424;-88
2023/09/24 09:10:48;;;;;;;2.03;1.20;;;15.90;97.30;;;;;;5024037;28;20709;-88
2023/09/24 09:13:17;;;;;;;1.57;1.47;;;16.00;97.30;;;;;;5022706;28;20196;-87
2023/09/24 09:15:43;;;;;;;1.33;1.30;;;16.10;97.30;;;;;;5020947;28;20435;-87
2023/09/24 09:18:24;;;;;;;1.97;1.43;;;16.20;97.30;;;;;;5017782;28;20472;-86
2023/09/24 09:20:51;;;;;;;3.33;1.40;;;16.30;97.30;;;;;;5020244;28;20446;-87
2023/09/24 09:23:31;;;;;;;2.03;1.90;;;16.40;97.30;;;;;;5024653;28;20468;-88
2023/09/24 09:25:57;;;;;;;1.27;1.00;;;16.40;97.30;;;;;;5028527;28;20411;-90
2023/09/24 09:28:24;;;;;;;1.63;1.53;;;16.30;97.30;;;;;;5021337;28;20419;-87
2023/09/24 09:31:10;;;;;;;1.73;1.17;;;16.30;97.30;;;;;;5024779;28;20230;-87
2023/09/24 09:33:42;;;;;;;1.97;1.90;;;16.20;97.30;;;;;;5024015;28;20433;-88
2023/09/24 09:36:28;;;;;;;12.30;1.57;;;16.20;97.30;;;;;;5021511;28;20424;-88
2023/09/24 09:39:00;;;;;;;1.33;1.23;;;16.20;97.30;;;;;;5029051;28;20889;-85
2023/09/24 09:41:26;;;;;;;1.17;1.07;;;16.10;97.30;;;;;;5040894;28;20447;-90
2023/09/24 09:43:52;;;;;;;1.67;1.50;;;16.10;97.30;;;;;;5046511;28;20463;-88
2023/09/24 09:46:23;;;;;;;1.13;1.03;;;16.10;97.30;;;;;;5047048;28;20427;-89
2023/09/24 09:49:06;;;;;;;1.00;0.90;;;16.10;97.30;;;;;;5036618;28;20419;-87
2023/09/24 09:51:47;;;;;;;1.83;1.73;;;16.10;97.30;;;;;;5042675;28;20474;-88
2023/09/24 09:54:14;;;;;;;1.50;1.40;;;16.10;97.30;;;;;;5036013;28;20952;-87
2023/09/24 09:56:41;;;;;;;1.13;1.03;;;16.20;97.30;;;;;;5032771;28;20431;-87
2023/09/24 09:59:07;;;;;;;1.20;1.20;;;16.20;97.30;;;;;;5030859;28;20436;-88
2023/09/24 10:01:33;;;;;;;1.40;1.30;;;16.30;97.30;;;;;;5030248;28;20475;-90
2023/09/24 10:04:03;;;;;;;1.10;1.00;;;16.40;97.30;;;;;;5029364;28;20463;-88
2023/09/24 10:06:34;;;;;;;1.10;1.00;;;16.50;97.30;;;;;;5033791;28;20215;-87
2023/09/24 10:08:59;;;;;;;1.00;0.90;;;16.50;97.30;;;;;;5024680;28;20472;-88
2023/09/24 10:11:31;;;;;;;1.77;1.00;;;16.60;97.30;;;;;;5031062;28;20474;-88
2023/09/24 10:14:05;;;;;;;0.97;0.87;;;16.70;97.30;;;;;;5033680;28;20275;-86
2023/09/24 10:16:37;;;;;;;1.00;0.90;;;16.80;97.30;;;;;;5021161;28;20423;-88
2023/09/24 10:19:11;;;;;;;2.50;1.27;;;16.80;97.30;;;;;;5031597;28;20459;-87
2023/09/24 10:21:44;;;;;;;1.00;0.90;;;16.80;97.30;;;;;;5018944;28;20453;-88
2023/09/24 10:24:13;;;;;;;0.90;0.80;;;16.80;97.30;;;;;;5023505;28;20416;-87
2023/09/24 10:27:02;;;;;;;4.93;1.00;;;16.90;97.30;;;;;;5028209;28;20443;-89
2023/09/24 10:29:49;;;;;;;1.57;1.00;;;17.00;97.30;;;;;;5024811;28;20435;-90
2023/09/24 10:32:20;;;;;;;1.10;1.00;;;17.10;95.90;;;;;;5024230;28;20435;-90
2023/09/24 10:34:53;;;;;;;1.00;0.90;;;17.30;95.60;;;;;;5023492;28;20458;-89
2023/09/24 10:37:23;;;;;;;1.10;1.00;;;17.50;96.60;;;;;;5020905;28;20582;-89
2023/09/24 10:40:05;;;;;;;1.63;1.53;;;17.50;96.40;;;;;;5018730;28;20431;-89
2023/09/24 10:42:30;;;;;;;1.13;1.10;;;17.50;97.00;;;;;;5022419;28;20458;-88
2023/09/24 10:45:08;;;;;;;0.93;0.83;;;17.40;95.50;;;;;;5022426;28;21091;-88
2023/09/24 10:47:44;;;;;;;2.50;1.10;;;17.40;94.90;;;;;;5026050;28;20195;-88
2023/09/24 10:50:15;;;;;;;0.90;0.80;;;17.30;95.00;;;;;;5024615;28;20419;-87
2023/09/24 10:52:53;;;;;;;1.20;1.10;;;17.30;96.10;;;;;;5017187;28;20474;-90
2023/09/24 10:55:33;;;;;;;1.10;1.00;;;17.40;95.70;;;;;;5024223;28;20420;-88
2023/09/24 10:58:11;;;;;;;1.10;1.00;;;17.50;95.90;;;;;;5024531;28;20463;-90
2023/09/24 11:00:37;;;;;;;1.00;0.90;;;17.60;96.10;;;;;;5017042;28;20423;-90
2023/09/24 11:03:06;;;;;;;9.93;1.43;;;17.60;95.80;;;;;;5028972;28;20431;-90
2023/09/24 11:05:45;;;;;;;1.40;1.30;;;17.70;95.90;;;;;;5017551;28;20411;-89
2023/09/24 11:08:13;;;;;;;1.10;1.00;;;17.70;95.00;;;;;;5028270;28;20427;-89
2023/09/24 11:10:39;;;;;;;0.90;0.80;;;17.70;95.00;;;;;;5019606;28;20462;-89
2023/09/24 11:13:05;;;;;;;1.40;1.30;;;17.70;94.90;;;;;;5019588;28;20415;-89
2023/09/24 11:15:36;;;;;;;1.30;1.20;;;17.70;95.10;;;;;;5014864;28;20181;-89
2023/09/24 11:18:02;;;;;;;1.20;1.10;;;17.70;95.50;;;;;;5018783;28;20464;-90
2023/09/24 11:20:31;;;;;;;1.10;1.00;;;17.70;96.10;;;;;;5019465;28;20543;-89
2023/09/24 11:22:57;;;;;;;1.10;1.00;;;17.70;94.90;;;;;;5013442;28;20416;-92
2023/09/24 11:25:24;;;;;;;1.00;0.90;;;17.60;95.50;;;;;;5018811;28;20549;-90
2023/09/24 11:27:55;;;;;;;0.97;0.87;;;17.60;95.10;;;;;;5020146;28;20428;-89
2023/09/24 11:30:22;;;;;;;1.30;1.20;;;17.60;94.90;;;;;;5012903;28;20418;-90
2023/09/24 11:32:50;;;;;;;1.20;1.10;;;17.60;94.50;;;;;;5024821;28;21286;-89
2023/09/24 11:35:18;;;;;;;1.20;1.10;;;17.60;94.40;;;;;;5015794;28;20435;-89
2023/09/24 11:37:59;;;;;;;1.00;0.90;;;17.60;94.00;;;;;;5045053;23;20550;-69
2023/09/24 11:40:36;;;;;;;1.00;0.90;;;17.70;94.50;;;;;;4985039;28;20802;-67
2023/09/24 11:43:04;;;;;;;1.00;0.90;;;17.70;94.30;;;;;;4986817;28;20807;-66
2023/09/24 11:45:48;;;;;;;1.20;1.10;;;17.70;94.30;;;;;;4985230;28;20467;-67
2023/09/24 11:48:22;;;;;;;1.10;1.00;;;17.70;94.50;;;;;;4986994;28;20425;-66
2023/09/24 11:51:00;;;;;;;1.57;1.30;;;17.80;94.60;;;;;;4972694;28;20449;-67
2023/09/24 11:53:26;;;;;;;1.00;0.90;;;17.80;95.30;;;;;;4982446;28;20442;-66
2023/09/24 11:55:54;;;;;;;1.43;1.13;;;17.90;95.50;;;;;;4980258;28;20870;-67
2023/09/24 11:58:22;;;;;;;1.00;0.90;;;18.00;95.10;;;;;;4983103;28;20514;-67
2023/09/24 12:00:47;;;;;;;0.90;0.80;;;18.10;94.40;;;;;;4980709;28;20480;-67
2023/09/24 12:03:14;;;;;;;1.00;0.90;;;18.20;93.80;;;;;;4978821;28;20420;-68
2023/09/24 12:05:40;;;;;;;1.10;1.00;;;18.30;94.70;;;;;;4967311;28;20182;-67
2023/09/24 12:08:07;;;;;;;2.80;2.30;;;18.40;93.90;;;;;;4983422;28;20468;-67
2023/09/24 12:10:36;;;;;;;0.90;0.90;;;18.50;94.40;;;;;;4967909;28;20430;-68
2023/09/24 12:13:04;;;;;;;1.40;1.30;;;18.50;94.40;;;;;;4979126;28;20527;-67
2023/09/24 12:15:30;;;;;;;1.23;1.13;;;18.60;94.70;;;;;;4979248;28;20451;-68
2023/09/24 12:17:57;;;;;;;8.80;1.20;;;18.60;94.10;;;;;;4991391;28;20460;-67
2023/09/24 12:20:23;;;;;;;1.30;1.20;;;18.50;93.00;;;;;;4996368;28;20456;-68
2023/09/24 12:22:49;;;;;;;1.37;1.27;;;18.50;93.20;;;;;;4985264;28;20429;-67
2023/09/24 12:25:14;;;;;;;1.00;0.90;;;18.50;92.60;;;;;;4977740;28;20432;-67
2023/09/24 12:27:47;;;;;;;2.10;1.20;;;18.40;91.80;;;;;;4980171;28;20429;-67
2023/09/24 12:30:13;;;;;;;1.10;1.00;;;18.40;92.30;;;;;;4987550;28;20197;-68
2023/09/24 12:32:39;;;;;;;1.10;1.00;;;18.40;92.30;;;;;;4988998;28;20441;-68
2023/09/24 12:35:07;;;;;;;0.97;0.80;;;18.50;92.10;;;;;;4996824;28;20181;-68
2023/09/24 12:37:34;;;;;;;1.00;0.90;;;18.60;91.60;;;;;;4987287;28;20469;-68
2023/09/24 12:40:00;;;;;;;1.00;0.90;;;18.60;92.20;;;;;;4986721;28;20448;-68
2023/09/24 12:42:28;;;;;;;1.20;1.10;;;18.70;92.90;;;;;;4983645;28;20452;-67
2023/09/24 12:44:54;;;;;;;1.20;1.10;;;18.70;91.80;;;;;;4983441;28;21043;-67
2023/09/24 12:47:19;;;;;;;1.20;1.00;;;18.70;91.70;;;;;;4968704;28;20417;-67
2023/09/24 12:49:46;;;;;;;1.00;1.00;;;18.70;91.80;;;;;;4966616;28;20193;-68
2023/09/24 12:52:12;;;;;;;0.90;0.80;;;18.80;92.20;;;;;;4976734;28;20208;-67
2023/09/24 12:54:39;;;;;;;0.93;0.83;;;18.90;91.90;;;;;;4978441;28;20416;-67
2023/09/24 12:57:05;;;;;;;1.00;0.90;;;19.20;92.80;;;;;;4989535;28;20181;-67
2023/09/24 12:59:30;;;;;;;1.03;0.93;;;19.50;92.00;;;;;;4984524;28;20445;-68
2023/09/24 13:01:56;;;;;;;1.10;1.00;;;19.90;90.60;;;;;;4979538;28;20622;-68
2023/09/24 13:04:21;;;;;;;1.00;0.90;;;20.20;90.60;;;;;;4989175;28;20185;-68
2023/09/24 13:06:47;;;;;;;0.90;0.80;;;20.60;89.80;;;;;;4994622;28;20184;-68
2023/09/24 13:09:17;;;;;;;1.30;0.93;;;20.90;89.50;;;;;;5007126;28;20181;-68
2023/09/24 13:11:48;;;;;;;1.10;0.90;;;21.00;88.80;;;;;;4982265;28;20569;-68
2023/09/24 13:14:14;;;;;;;0.80;0.80;;;21.10;88.10;;;;;;4983969;28;20417;-69
2023/09/24 13:16:42;;;;;;;0.90;0.80;;;21.20;88.40;;;;;;4989018;28;20433;-68
2023/09/24 13:19:14;;;;;;;1.23;1.13;;;21.10;88.00;;;;;;4982031;28;20698;-68
2023/09/24 13:21:43;;;;;;;1.67;1.17;;;20.90;88.20;;;;;;4980925;28;20637;-68
2023/09/24 13:24:09;;;;;;;1.00;0.90;;;20.70;88.80;;;;;;4985939;28;20418;-68
2023/09/24 13:26:36;;;;;;;0.90;0.80;;;20.50;88.40;;;;;;4989374;28;20821;-67
2023/09/24 13:29:06;;;;;;;1.20;1.10;;;20.40;89.70;;;;;;4989375;28;20669;-68
2023/09/24 13:31:32;;;;;;;1.00;0.90;;;20.50;89.50;;;;;;4988275;28;20443;-68
2023/09/24 13:33:59;;;;;;;0.90;0.80;;;20.60;89.70;;;;;;4998270;28;20415;-68
2023/09/24 13:36:25;;;;;;;3.57;1.20;;;20.80;89.50;;;;;;4976373;28;20232;-68
2023/09/24 13:38:51;;;;;;;1.03;0.93;;;20.90;88.60;;;;;;4999199;28;20512;-68
2023/09/24 13:41:17;;;;;;;1.00;0.90;;;21.00;88.30;;;;;;4988052;28;20263;-68
2023/09/24 13:43:42;;;;;;;3.43;1.10;;;21.00;87.30;;;;;;4988288;28;20648;-68
2023/09/24 13:46:08;;;;;;;0.77;0.77;;;20.90;87.50;;;;;;4983306;28;20232;-68
2023/09/24 13:48:34;;;;;;;0.90;0.80;;;20.80;87.10;;;;;;4989711;28;20269;-68
2023/09/24 13:51:00;;;;;;;0.80;0.80;;;20.80;87.50;;;;;;4988778;28;20445;-68
2023/09/24 13:53:25;;;;;;;1.57;1.23;;;20.90;87.90;;;;;;4989557;28;20193;-68
2023/09/24 13:55:51;;;;;;;1.00;0.90;;;21.10;88.00;;;;;;4991176;28;20211;-68
2023/09/24 13:58:17;;;;;;;1.10;1.10;;;21.30;88.00;;;;;;4988602;28;20723;-68
2023/09/24 14:00:47;;;;;;;1.40;0.90;;;21.60;87.40;;;;;;4990769;28;20264;-68
2023/09/24 14:03:13;;;;;;;0.90;0.80;;;21.80;86.80;;;;;;4989546;28;20177;-68
2023/09/24 14:05:39;;;;;;;1.70;1.23;;;22.10;86.10;;;;;;4989225;28;20519;-68
2023/09/24 14:13:34;;;;;;;1.20;1.10;;;21.70;84.90;;;;;;4989590;28;20786;-68
2023/09/24 14:16:00;;;;;;;1.17;0.80;;;21.40;86.40;;;;;;4988188;28;20436;-68
2023/09/24 14:18:26;;;;;;;1.00;0.90;;;21.10;87.10;;;;;;4989560;28;20638;-68
2023/09/24 14:20:51;;;;;;;1.67;1.00;;;20.80;87.40;;;;;;4988357;28;21068;-68
2023/09/24 14:23:17;;;;;;;1.00;0.90;;;20.50;89.20;;;;;;4996356;28;20193;-68
2023/09/24 14:25:43;;;;;;;0.80;0.80;;;20.30;90.50;;;;;;4984300;28;20256;-68
2023/09/24 14:28:10;;;;;;;1.00;0.90;;;20.10;90.80;;;;;;4989511;28;20186;-68
2023/09/24 14:30:39;;;;;;;0.90;0.80;;;19.90;91.20;;;;;;4989521;28;20464;-68
2023/09/24 14:33:06;;;;;;;0.90;0.80;;;19.80;91.30;;;;;;4990344;28;20468;-68
2023/09/24 14:35:32;;;;;;;0.90;0.80;;;19.60;92.10;;;;;;4990617;28;20960;-68
2023/09/24 14:37:58;;;;;;;0.93;0.83;;;19.50;92.50;;;;;;4988769;28;20477;-67
2023/09/24 14:40:23;;;;;;;1.10;1.00;;;19.40;93.10;;;;;;4988673;28;20378;-67
2023/09/24 14:42:49;;;;;;;1.00;0.90;;;19.30;93.60;;;;;;4991761;28;20251;-67
2023/09/24 14:45:15;;;;;;;0.90;0.80;;;19.20;93.30;;;;;;4992955;28;20182;-67
2023/09/24 14:47:42;;;;;;;1.30;1.20;;;19.20;92.70;;;;;;4989064;28;20188;-67
2023/09/24 14:50:08;;;;;;;1.17;1.07;;;19.20;92.90;;;;;;4987827;28;20255;-67
2023/09/24 14:52:34;;;;;;;1.30;1.20;;;19.10;93.40;;;;;;4977992;28;20451;-67
2023/09/24 14:54:59;;;;;;;1.47;1.13;;;19.10;94.00;;;;;;4991481;28;20913;-67
2023/09/24 14:57:25;;;;;;;1.53;1.43;;;19.10;94.60;;;;;;4989797;28;20233;-67
2023/09/24 14:59:52;;;;;;;1.00;0.90;;;19.00;95.10;;;;;;5004980;28;20768;-67
2023/09/24 15:02:18;;;;;;;1.00;0.90;;;19.00;95.10;;;;;;4989344;28;20214;-67
2023/09/24 15:04:43;;;;;;;0.90;0.80;;;19.00;95.00;;;;;;4981559;28;20429;-67
2023/09/24 15:07:10;;;;;;;1.10;1.00;;;18.90;95.20;;;;;;4987948;28;20417;-68
2023/09/24 15:09:36;;;;;;;1.03;0.93;;;18.90;95.60;;;;;;4987901;28;20193;-68
2023/09/24 15:12:01;;;;;;;1.27;1.20;;;18.90;96.00;;;;;;4990344;28;20440;-68
2023/09/24 15:14:29;;;;;;;1.07;1.00;;;18.90;96.30;;;;;;4990168;28;20193;-68
2023/09/24 15:16:56;;;;;;;0.90;0.80;;;19.10;95.90;;;;;;4993059;28;20280;-67
2023/09/24 15:19:24;;;;;;;1.10;1.00;;;19.30;95.30;;;;;;4989606;28;20516;-68
2023/09/24 15:21:51;;;;;;;1.00;0.90;;;19.40;93.80;;;;;;4985827;28;20559;-68
2023/09/24 15:24:16;;;;;;;1.00;1.00;;;19.40;94.10;;;;;;4989101;28;20487;-67
2023/09/24 15:26:42;;;;;;;1.10;1.00;;;19.40;95.00;;;;;;4990337;28;20425;-68
2023/09/24 15:29:07;;;;;;;1.07;0.97;;;19.20;95.40;;;;;;4988354;28;20194;-67
2023/09/24 15:31:34;;;;;;;1.00;0.90;;;19.10;95.90;;;;;;4986395;28;20214;-67
2023/09/24 15:34:00;;;;;;;1.60;1.50;;;19.00;96.30;;;;;;4986433;28;20205;-68
2023/09/24 15:36:25;;;;;;;1.07;1.03;;;18.90;96.90;;;;;;4988071;28;20433;-78
2023/09/24 15:38:51;;;;;;;1.23;1.10;;;18.80;96.90;;;;;;4982109;28;20280;-82
2023/09/24 15:41:17;;;;;;;2.10;1.53;;;18.70;96.80;;;;;;5003675;28;20337;-81
2023/09/24 15:43:43;;;;;;;2.80;1.40;;;18.70;96.90;;;;;;4980039;28;20421;-80
2023/09/24 15:46:16;;;;;;;4.00;1.40;;;18.70;97.30;;;;;;4990673;28;20207;-77
2023/09/24 15:48:42;;;;;;;1.00;0.90;;;18.60;97.30;;;;;;4989270;28;20197;-80
2023/09/24 15:51:15;;;;;;;1.17;1.07;;;18.60;97.30;;;;;;4988958;28;20444;-83
2023/09/24 15:53:41;;;;;;;1.20;1.10;;;18.60;97.30;;;;;;4999756;28;20433;-67
2023/09/24 15:56:06;;;;;;;1.43;1.33;;;18.60;97.30;;;;;;5000949;28;20506;-67
2023/09/24 15:58:32;;;;;;;0.90;0.83;;;18.60;97.30;;;;;;4987768;28;20299;-67
2023/09/24 16:00:57;;;;;;;1.00;0.90;;;18.50;97.30;;;;;;4987467;28;20220;-67
2023/09/24 16:03:23;;;;;;;1.10;1.00;;;18.40;97.30;;;;;;4988321;28;20184;-68
2023/09/24 16:05:49;;;;;;;1.63;1.00;;;18.30;97.30;;;;;;4986712;28;20232;-67
2023/09/24 16:08:14;;;;;;;1.47;1.37;;;18.20;97.30;;;;;;4981890;28;20233;-67
2023/09/24 16:10:40;;;;;;;0.97;0.87;;;18.10;97.30;;;;;;4987997;28;20268;-67
2023/09/24 16:13:06;;;;;;;1.17;1.07;;;18.00;97.30;;;;;;4988285;28;20702;-67
2023/09/24 16:15:32;;;;;;;2.40;1.20;;;17.90;97.30;;;;;;4985243;28;20496;-67
2023/09/24 16:17:57;;;;;;;1.20;1.10;;;17.90;97.30;;;;;;4989280;28;20217;-67
2023/09/24 16:20:23;;;;;;;1.60;1.50;;;17.80;97.30;;;;;;4988970;28;20182;-67
2023/09/24 16:22:51;;;;;;;1.60;1.40;;;17.70;97.30;;;;;;4983203;28;20182;-67
2023/09/24 16:25:17;;;;;;;1.00;0.90;;;17.70;97.30;;;;;;4988840;28;20193;-66
2023/09/24 16:27:44;;;;;;;1.50;1.40;;;17.70;97.30;;;;;;4985142;28;20452;-66
2023/09/24 16:30:11;;;;;;;1.30;1.20;;;17.60;97.30;;;;;;4985250;28;20441;-67
2023/09/24 16:32:38;;;;;;;1.00;0.90;;;17.60;97.30;;;;;;4987613;28;20960;-67
2023/09/24 16:35:04;;;;;;;2.33;1.00;;;17.60;97.30;;;;;;4989880;28;20483;-66
2023/09/24 16:37:32;;;;;;;1.30;1.30;;;17.70;97.30;;;;;;4988644;28;20480;-67
2023/09/24 16:39:58;;;;;;;1.10;1.00;;;17.70;97.30;;;;;;4991352;28;20240;-67
2023/09/24 16:42:25;;;;;;;1.17;1.07;;;17.70;97.30;;;;;;4985182;28;20449;-66
2023/09/24 16:44:51;;;;;;;1.00;0.90;;;17.70;97.30;;;;;;4989651;28;20483;-66
2023/09/24 16:47:16;;;;;;;5.60;1.10;;;17.60;97.30;;;;;;4983774;28;20900;-67
2023/09/24 16:49:42;;;;;;;1.10;1.00;;;17.50;97.30;;;;;;4980054;28;20741;-67
2023/09/24 16:52:07;;;;;;;1.43;1.20;;;17.30;97.30;;;;;;4985513;28;20735;-66
2023/09/24 16:54:33;;;;;;;1.07;0.97;;;17.20;97.30;;;;;;4986698;28;20181;-67
2023/09/24 16:56:58;;;;;;;0.90;0.90;;;17.10;97.30;;;;;;4982119;28;20557;-66
2023/09/24 16:59:26;;;;;;;1.00;0.90;;;17.00;97.30;;;;;;4985018;28;20189;-67